Juno — C6YJ4 — position and weather

sailwx.info

Track history (hours):
 
Tides and Currents Weather Stations Pressure Air Temp Water Temp Dewpoint Dewpoint Depression Visibility Wind Speed Wind Dir Waves Ship Positions

Juno

Last reported at 2017-Nov-11 12:16 UTC. Time now 2017-Nov-17 23:15 UTC.
Position N 45°15' W 073°58'.

Length 189 m; draft 8 m.

Type: Cargo ship. MMSI: 311033600.

Date/timePositionNaut miles runAvg speedWind from/ knotsBaromVisibWave heightAir tempDewpointWater temp
2017-Nov-11 12:16N 45°15' W 073°58'0 0.0
2017-Nov-11 11:47N 45°15' W 073°58'0 0.6
2017-Nov-11 11:28N 45°15' W 073°59'2 3.5
2017-Nov-11 10:55N 45°16' W 073°57'2 5.1
2017-Nov-11 10:30N 45°18' W 073°56'0 0.8
2017-Nov-11 10:00N 45°19' W 073°55'0 0.9
2017-Nov-11 09:30N 45°19' W 073°55'1 2.7
2017-Nov-11 09:00N 45°20' W 073°54'5 9.1
2017-Nov-11 08:30N 45°23' W 073°49'4 8.7
2017-Nov-11 08:00N 45°25' W 073°43'  
Track history (hours):
 
Tides and Currents Weather Stations Pressure Air Temp Water Temp Dewpoint Dewpoint Depression Visibility Wind Speed Wind Dir Waves Ship Positions

Juno

Last reported at 2017-Nov-11 12:16 UTC. Time now 2017-Nov-17 23:15 UTC.
Position N 45°15' W 073°58'.

Length 189 m; draft 8 m.

Type: Cargo ship. MMSI: 311033600.

Date/timePositionNaut miles runAvg speedWind from/ knotsBaromVisibWave heightAir tempDewpointWater temp
2017-Nov-11 12:16N 45°15' W 073°58'0 0.0
2017-Nov-11 11:47N 45°15' W 073°58'0 0.6
2017-Nov-11 11:28N 45°15' W 073°59'2 3.5
2017-Nov-11 10:55N 45°16' W 073°57'2 5.1
2017-Nov-11 10:30N 45°18' W 073°56'0 0.8
2017-Nov-11 10:00N 45°19' W 073°55'0 0.9
2017-Nov-11 09:30N 45°19' W 073°55'1 2.7
2017-Nov-11 09:00N 45°20' W 073°54'5 9.1
2017-Nov-11 08:30N 45°23' W 073°49'4 8.7
2017-Nov-11 08:00N 45°25' W 073°43'  

Dump ship's entire track history